Time;durP1;ratioP1;P1;durP2;ratioP2;P2;SDS_P1;SDS_P2;PMS_P1;PMS_P2;Temp;Humidity;BMP_temperature;BMP_pressure;BME280_temperature;BME280_humidity;BME280_pressure;Samples;Min_cycle;Max_cycle;Signal;HPM_P1;HPM_P2
2021/12/12 00:02:34;;;;;;;11.55;7.35;;;;;;;7.38;95.19;93180.50;5009803;28;20205;-76
2021/12/12 00:05:08;;;;;;;13.57;6.93;;;;;;;7.42;95.10;93194.06;5010518;28;20209;-78
2021/12/12 00:07:37;;;;;;;10.57;6.05;;;;;;;7.26;95.28;93209.38;5014826;28;20725;-78
2021/12/12 00:10:11;;;;;;;7.80;5.07;;;;;;;7.12;95.86;93213.22;5018960;28;20243;-77
2021/12/12 00:12:50;;;;;;;13.05;6.78;;;;;;;7.20;95.44;93245.75;5010272;28;20266;-75
2021/12/12 00:15:19;;;;;;;12.27;7.28;;;;;;;7.11;95.94;93259.31;5011645;28;20720;-76
2021/12/12 00:17:47;;;;;;;11.32;6.70;;;;;;;7.12;95.69;93248.22;5022215;28;20244;-75
2021/12/12 00:20:19;;;;;;;10.23;6.50;;;;;;;7.02;96.01;93243.31;5009802;28;20810;-76
2021/12/12 00:22:47;;;;;;;17.13;11.65;;;;;;;7.03;96.26;93234.13;5010223;28;20205;-76
2021/12/12 00:25:15;;;;;;;28.13;15.18;;;;;;;6.89;96.59;93227.53;5013369;28;20303;-75
2021/12/12 00:27:44;;;;;;;12.25;7.70;;;;;;;6.99;96.56;93248.59;5019614;28;20620;-76
2021/12/12 00:30:14;;;;;;;16.77;9.32;;;;;;;7.05;96.66;93258.78;5014066;28;20287;-75
2021/12/12 00:32:41;;;;;;;21.85;13.75;;;;;;;7.09;96.69;93270.47;5029986;28;20204;-76
2021/12/12 00:35:12;;;;;;;16.52;12.52;;;;;;;7.10;96.22;93272.03;5020730;28;20201;-76
2021/12/12 00:37:41;;;;;;;12.38;9.05;;;;;;;6.92;96.03;93257.25;5025585;28;20224;-75
2021/12/12 00:40:12;;;;;;;11.20;7.40;;;;;;;6.90;96.08;93262.16;5015029;28;20696;-76
2021/12/12 00:42:40;;;;;;;13.10;7.30;;;;;;;6.96;96.11;93276.19;5013733;28;20212;-76
2021/12/12 00:45:11;;;;;;;16.08;11.75;;;;;;;6.94;96.29;93281.91;5007150;28;20208;-75
2021/12/12 00:47:39;;;;;;;15.45;11.73;;;;;;;6.92;96.57;93286.84;5034146;28;20196;-76
2021/12/12 00:50:10;;;;;;;12.70;8.38;;;;;;;6.90;96.44;93286.41;5018161;28;20217;-76
2021/12/12 00:52:38;;;;;;;14.15;8.25;;;;;;;6.91;96.15;93296.03;5012757;28;20201;-75
2021/12/12 00:55:07;;;;;;;9.45;7.00;;;;;;;6.87;95.63;93297.81;5012571;28;20204;-76
2021/12/12 00:57:34;;;;;;;18.77;10.07;;;;;;;6.76;95.85;93307.47;5012112;28;20209;-76
2021/12/12 01:00:01;;;;;;;10.73;5.88;;;;;;;6.68;96.34;93305.69;5011553;28;20796;-76
2021/12/12 01:02:30;;;;;;;10.80;6.43;;;;;;;6.69;96.44;93309.94;5011785;28;20209;-75
2021/12/12 01:05:02;;;;;;;15.40;7.50;;;;;;;6.88;96.38;93318.25;5020761;28;20555;-76
2021/12/12 01:07:33;;;;;;;12.10;7.20;;;;;;;6.82;96.40;93313.44;5015761;28;20746;-76
2021/12/12 01:10:05;;;;;;;8.48;5.90;;;;;;;6.69;96.12;93301.88;5012196;28;20599;-76
2021/12/12 01:12:34;;;;;;;10.85;6.75;;;;;;;6.71;96.34;93318.44;5011918;28;20205;-76
2021/12/12 01:15:12;;;;;;;13.20;7.53;;;;;;;6.79;96.32;93314.88;5011549;28;20292;-76
2021/12/12 01:17:43;;;;;;;13.27;7.95;;;;;;;6.67;96.17;93312.19;5005777;28;20234;-76
2021/12/12 01:20:25;;;;;;;14.52;7.72;;;;;;;6.71;96.30;93323.81;5017309;28;20209;-76
2021/12/12 01:22:58;;;;;;;21.20;13.77;;;;;;;6.65;95.94;93320.59;5012786;28;20618;-75
2021/12/12 01:25:29;;;;;;;15.10;8.65;;;;;;;6.61;96.29;93324.28;5017264;28;20270;-75
2021/12/12 01:27:58;;;;;;;16.42;9.48;;;;;;;6.58;96.06;93324.94;5031886;28;20648;-76
2021/12/12 01:30:26;;;;;;;13.60;8.73;;;;;;;6.60;96.05;93333.47;5014369;28;20592;-74
2021/12/12 01:32:58;;;;;;;15.73;7.60;;;;;;;6.50;96.10;93323.13;5012451;28;20205;-76
2021/12/12 01:35:26;;;;;;;18.27;9.88;;;;;;;6.46;96.51;93316.84;5018402;28;20198;-76
2021/12/12 01:40:37;;;;;;;16.83;9.25;;;;;;;6.50;96.21;93312.38;5011527;28;20352;-76
2021/12/12 01:43:19;;;;;;;22.52;11.95;;;;;;;6.43;96.35;93308.31;5012563;28;20619;-75
2021/12/12 01:45:48;;;;;;;21.63;12.75;;;;;;;6.48;96.38;93314.63;5012905;28;20212;-75
2021/12/12 01:48:20;;;;;;;18.40;10.50;;;;;;;6.41;96.45;93321.34;5012745;28;20209;-76
2021/12/12 01:50:50;;;;;;;16.33;9.20;;;;;;;6.43;96.73;93343.28;5012663;28;20668;-75
2021/12/12 01:53:21;;;;;;;19.63;10.68;;;;;;;6.56;97.08;93356.78;5012478;28;20695;-75
2021/12/12 01:55:52;;;;;;;15.57;7.63;;;;;;;6.46;96.45;93355.28;5012857;28;20643;-74
2021/12/12 01:58:24;;;;;;;9.70;5.82;;;;;;;6.36;96.53;93345.75;5011225;28;20781;-75
2021/12/12 02:00:57;;;;;;;14.80;8.27;;;;;;;6.33;96.37;93351.78;5012900;28;20208;-74
2021/12/12 02:03:28;;;;;;;12.65;7.97;;;;;;;6.37;96.37;93363.47;5012728;28;20205;-74
2021/12/12 02:05:56;;;;;;;14.35;7.95;;;;;;;6.40;96.26;93368.19;5012227;28;20263;-75
2021/12/12 02:08:24;;;;;;;12.45;6.38;;;;;;;6.22;96.43;93356.00;5012342;28;20213;-75
2021/12/12 02:10:58;;;;;;;7.65;4.30;;;;;;;6.27;94.53;93342.38;5012232;28;20252;-75
2021/12/12 02:13:28;;;;;;;8.40;5.30;;;;;;;6.26;94.88;93350.78;5012408;28;20216;-74
2021/12/12 02:16:00;;;;;;;13.45;7.45;;;;;;;6.27;95.29;93358.50;5012278;28;20209;-74
2021/12/12 02:18:33;;;;;;;11.20;7.15;;;;;;;6.29;95.74;93350.09;5012352;28;20224;-74
2021/12/12 02:21:14;;;;;;;1.20;1.10;;;;;;;6.51;88.98;93340.84;5012238;28;20201;-76
2021/12/12 02:24:15;;;;;;;6.88;4.57;;;;;;;6.47;90.86;93348.78;5012001;28;20208;-75
2021/12/12 02:35:13;;;;;;;12.40;6.07;;;;;;;5.86;95.57;93386.19;5011968;28;20278;-74
2021/12/12 02:37:42;;;;;;;12.60;6.18;;;;;;;5.83;96.20;93383.38;5011786;28;20297;-74
2021/12/12 02:40:17;;;;;;;11.05;7.07;;;;;;;5.88;96.14;93404.66;5010389;28;20232;-74
2021/12/12 02:42:44;;;;;;;11.68;6.88;;;;;;;5.70;96.44;93399.41;5024490;28;20196;-74
2021/12/12 02:45:15;;;;;;;14.15;8.23;;;;;;;5.75;96.60;93403.00;5011847;28;20204;-74
2021/12/12 02:47:45;;;;;;;15.32;8.88;;;;;;;5.74;96.57;93398.78;5011780;28;20691;-75
2021/12/12 02:50:17;;;;;;;12.43;7.40;;;;;;;5.68;96.66;93407.03;5011719;28;20209;-74
2021/12/12 02:52:58;;;;;;;12.98;8.32;;;;;;;5.55;96.45;93408.06;5010896;28;20730;-74
2021/12/12 02:55:30;;;;;;;14.25;7.93;;;;;;;5.56;96.61;93404.25;5011283;28;20343;-74
2021/12/12 02:58:00;;;;;;;13.52;9.02;;;;;;;5.68;96.54;93401.66;5009832;28;20247;-74
2021/12/12 03:00:31;;;;;;;13.45;7.15;;;;;;;5.78;96.14;93410.41;5011041;28;20209;-74
2021/12/12 03:03:00;;;;;;;13.48;7.90;;;;;;;5.72;95.86;93421.38;5011055;28;20656;-74
2021/12/12 03:05:31;;;;;;;10.90;7.97;;;;;;;5.80;96.18;93418.94;5011540;28;20201;-75
2021/12/12 03:07:58;;;;;;;13.80;6.78;;;;;;;5.58;95.23;93420.84;5010515;28;20685;-74
2021/12/12 03:10:29;;;;;;;8.60;5.43;;;;;;;5.58;95.34;93431.59;5011326;28;20220;-75
2021/12/12 03:12:57;;;;;;;11.95;6.90;;;;;;;5.57;95.45;93442.66;5011135;28;20201;-75
2021/12/12 03:15:28;;;;;;;10.00;5.65;;;;;;;5.45;94.88;93446.03;5011521;28;20682;-75
2021/12/12 03:17:58;;;;;;;4.28;3.35;;;;;;;5.32;94.37;93447.03;5011150;28;21043;-75
2021/12/12 03:20:28;;;;;;;6.10;3.70;;;;;;;5.22;94.24;93428.59;5013962;28;20578;-74
2021/12/12 03:23:01;;;;;;;3.78;2.40;;;;;;;5.15;92.80;93436.38;5020643;28;20205;-75
2021/12/12 03:25:33;;;;;;;4.35;2.53;;;;;;;5.07;93.08;93450.59;5011489;28;20606;-75
2021/12/12 03:28:00;;;;;;;4.07;2.17;;;;;;;5.03;93.36;93460.44;5010868;28;20719;-75
2021/12/12 03:30:29;;;;;;;4.47;2.72;;;;;;;5.10;93.41;93476.81;5010715;28;20209;-74
2021/12/12 03:32:56;;;;;;;4.43;2.83;;;;;;;5.12;92.87;93491.47;5023279;28;20670;-75
2021/12/12 03:35:23;;;;;;;4.90;2.80;;;;;;;5.02;93.53;93486.47;5011457;28;20205;-76
2021/12/12 03:37:50;;;;;;;3.90;1.48;;;;;;;4.94;93.35;93490.75;5010233;28;20213;-76
2021/12/12 03:40:22;;;;;;;2.30;1.85;;;;;;;4.76;92.48;93475.81;5010998;28;20236;-74
2021/12/12 03:42:54;;;;;;;2.85;1.20;;;;;;;4.70;92.30;93493.16;5010660;28;20259;-76
2021/12/12 03:45:22;;;;;;;1.90;1.30;;;;;;;4.83;93.46;93516.34;5011020;28;20283;-74
2021/12/12 03:47:53;;;;;;;1.35;1.23;;;;;;;4.79;93.14;93520.75;5010804;28;20572;-74
2021/12/12 03:50:23;;;;;;;2.97;1.30;;;;;;;4.68;91.91;93508.78;5011062;28;20599;-75
2021/12/12 03:52:51;;;;;;;1.55;1.17;;;;;;;4.57;92.64;93508.34;5010737;28;20229;-75
2021/12/12 03:55:20;;;;;;;2.47;1.35;;;;;;;4.45;92.77;93526.16;5011084;28;20205;-75
2021/12/12 03:57:50;;;;;;;0.70;0.70;;;;;;;4.38;92.27;93526.63;5010949;28;20303;-75
2021/12/12 04:00:21;;;;;;;2.58;1.52;;;;;;;4.26;92.60;93524.59;5010701;28;20283;-74
2021/12/12 04:02:48;;;;;;;1.33;1.13;;;;;;;4.28;92.55;93546.50;5009973;28;20201;-74
2021/12/12 04:05:16;;;;;;;1.83;1.48;;;;;;;4.40;93.51;93555.81;5010725;28;20267;-74
2021/12/12 04:07:44;;;;;;;2.83;1.98;;;;;;;4.52;93.34;93554.06;5016382;28;20266;-75
2021/12/12 04:10:16;;;;;;;2.40;1.55;;;;;;;4.37;92.17;93545.75;5021126;28;20201;-74
2021/12/12 04:12:44;;;;;;;1.80;1.45;;;;;;;4.22;92.94;93538.94;5017733;28;20204;-76
2021/12/12 04:15:12;;;;;;;2.97;1.90;;;;;;;4.43;93.47;93555.97;5019409;28;20217;-75
2021/12/12 04:17:39;;;;;;;2.40;1.70;;;;;;;4.60;93.22;93571.28;5018291;28;20204;-75
2021/12/12 04:20:12;;;;;;;1.58;1.33;;;;;;;4.68;92.19;93589.25;5014010;28;20321;-75
2021/12/12 04:22:39;;;;;;;2.17;1.23;;;;;;;4.46;91.52;93584.06;5014497;28;20267;-75
2021/12/12 04:25:07;;;;;;;3.58;1.45;;;;;;;4.29;92.16;93588.28;5027855;28;20208;-75
2021/12/12 04:27:34;;;;;;;2.60;1.40;;;;;;;4.26;90.79;93598.84;5014484;28;20205;-75
2021/12/12 04:30:04;;;;;;;0.52;0.50;;;;;;;4.08;91.40;93587.31;5014446;28;20252;-75
2021/12/12 04:32:32;;;;;;;1.25;1.10;;;;;;;4.06;92.00;93583.38;5013937;28;20204;-75
2021/12/12 04:35:02;;;;;;;2.47;1.50;;;;;;;3.98;92.28;93614.38;5013415;28;20217;-75
2021/12/12 04:37:29;;;;;;;2.50;1.80;;;;;;;4.25;92.84;93619.50;5014145;28;20205;-75
2021/12/12 04:39:58;;;;;;;1.88;1.50;;;;;;;4.14;91.76;93612.06;5013026;28;20242;-75
2021/12/12 04:42:28;;;;;;;1.55;1.20;;;;;;;4.23;91.48;93613.69;5013768;28;20212;-75
2021/12/12 04:45:04;;;;;;;3.53;2.33;;;;;;;3.94;92.74;93613.44;5014093;28;20269;-75
2021/12/12 04:50:34;;;;;;;2.35;1.73;;;;;;;4.04;93.56;93645.31;5013137;28;20686;-76
2021/12/12 04:53:04;;;;;;;3.00;2.00;;;;;;;4.17;93.22;93654.31;5012815;28;20228;-75
2021/12/12 04:55:36;;;;;;;1.13;0.98;;;;;;;4.02;93.09;93630.63;5014278;28;20205;-75
2021/12/12 04:58:10;;;;;;;2.85;1.88;;;;;;;3.92;93.99;93642.44;5013682;28;20259;-74
2021/12/12 05:00:46;;;;;;;3.10;1.85;;;;;;;3.94;94.35;93653.63;5013410;28;20311;-74
2021/12/12 05:03:20;;;;;;;1.60;1.23;;;;;;;3.84;91.21;93654.66;5012741;28;20207;-75
2021/12/12 05:05:54;;;;;;;1.65;1.30;;;;;;;3.82;90.58;93669.50;5012834;28;20599;-75
2021/12/12 05:08:27;;;;;;;1.42;1.10;;;;;;;3.72;89.79;93680.44;5024026;28;20192;-74
2021/12/12 05:10:58;;;;;;;1.25;0.93;;;;;;;3.69;90.28;93686.44;5014699;28;20209;-75
2021/12/12 05:13:32;;;;;;;2.72;1.65;;;;;;;3.80;90.63;93685.88;5013134;28;20726;-75
2021/12/12 05:16:06;;;;;;;1.95;1.48;;;;;;;3.85;89.97;93701.00;5013378;28;20263;-75
2021/12/12 05:18:39;;;;;;;2.22;1.63;;;;;;;3.99;88.93;93712.41;5012697;28;20671;-75
2021/12/12 05:21:09;;;;;;;2.08;1.50;;;;;;;3.91;89.52;93711.28;5012790;28;20708;-75
2021/12/12 05:23:39;;;;;;;2.42;1.90;;;;;;;3.88;88.61;93727.97;5013887;28;20319;-75
2021/12/12 05:26:10;;;;;;;2.10;1.50;;;;;;;3.73;88.84;93720.31;5013673;28;20205;-75
2021/12/12 05:28:43;;;;;;;1.80;1.17;;;;;;;3.63;88.42;93715.22;5013356;28;20213;-75
2021/12/12 05:31:13;;;;;;;1.20;1.10;;;;;;;3.53;87.90;93716.28;5013582;28;20209;-74
2021/12/12 05:33:42;;;;;;;1.00;0.90;;;;;;;3.42;87.76;93714.94;5012980;28;20263;-76
2021/12/12 05:36:11;;;;;;;1.45;1.10;;;;;;;3.22;88.55;93723.47;5013219;28;20209;-76
2021/12/12 05:38:39;;;;;;;1.50;1.13;;;;;;;3.28;88.39;93727.56;5012564;28;20205;-76
2021/12/12 05:41:07;;;;;;;1.13;0.80;;;;;;;3.01;88.44;93735.72;5012929;28;20217;-75
2021/12/12 05:43:35;;;;;;;1.67;1.05;;;;;;;3.03;89.14;93744.22;5020146;28;20204;-77
2021/12/12 05:46:02;;;;;;;1.95;1.25;;;;;;;3.14;89.73;93756.31;5019119;28;20255;-75
2021/12/12 05:48:30;;;;;;;1.10;1.00;;;;;;;3.27;89.32;93760.03;5012586;28;20275;-75
2021/12/12 05:51:01;;;;;;;1.73;1.13;;;;;;;3.17;88.60;93774.41;5012540;28;20255;-75
2021/12/12 05:53:28;;;;;;;1.08;0.85;;;;;;;3.12;89.05;93777.22;5012927;28;20260;-75
2021/12/12 05:55:56;;;;;;;0.80;0.70;;;;;;;3.11;88.14;93780.97;5012939;28;20213;-75
2021/12/12 05:58:23;;;;;;;1.67;0.95;;;;;;;2.98;88.49;93781.81;5012367;28;20213;-75
2021/12/12 06:00:56;;;;;;;1.15;0.93;;;;;;;3.04;88.81;93793.97;5012636;28;20241;-75
2021/12/12 06:03:27;;;;;;;1.63;0.73;;;;;;;2.97;88.04;93785.56;5012653;28;20213;-76
2021/12/12 06:05:56;;;;;;;1.00;0.90;;;;;;;3.04;88.68;93804.66;5012783;28;20263;-75
2021/12/12 06:08:26;;;;;;;1.08;0.90;;;;;;;3.26;88.62;93796.69;5011835;28;20271;-75
2021/12/12 06:10:55;;;;;;;1.48;1.23;;;;;;;3.11;87.48;93791.69;5012651;28;20201;-75
2021/12/12 06:13:23;;;;;;;2.10;1.20;;;;;;;3.14;86.75;93805.22;5012328;28;20668;-74
2021/12/12 06:15:53;;;;;;;0.75;0.75;;;;;;;3.07;87.18;93802.19;5011427;28;20197;-75
2021/12/12 06:18:22;;;;;;;0.60;0.60;;;;;;;2.84;87.52;93804.00;5012077;28;20684;-76
2021/12/12 06:20:50;;;;;;;1.65;1.23;;;;;;;2.96;88.11;93808.06;5025884;28;20294;-74
2021/12/12 06:23:17;;;;;;;1.35;1.02;;;;;;;2.83;87.97;93799.75;5024311;28;20270;-73
2021/12/12 06:25:47;;;;;;;0.80;0.60;;;;;;;2.82;87.72;93800.84;5032280;28;20282;-75
2021/12/12 06:28:21;;;;;;;1.25;0.95;;;;;;;2.85;88.35;93813.63;5032384;28;20200;-75
2021/12/12 06:30:48;;;;;;;0.90;0.90;;;;;;;2.94;88.44;93820.94;5007012;28;20646;-75
2021/12/12 06:33:15;;;;;;;1.48;1.27;;;;;;;2.93;88.41;93830.03;5016101;28;20201;-75
2021/12/12 06:35:43;;;;;;;2.25;1.55;;;;;;;3.06;88.93;93850.63;5011379;28;20255;-75
2021/12/12 06:38:12;;;;;;;1.35;1.00;;;;;;;3.01;87.02;93835.47;5012275;28;20579;-75
2021/12/12 06:40:41;;;;;;;0.88;0.88;;;;;;;2.83;87.69;93834.53;5010309;28;20291;-75
2021/12/12 06:43:14;;;;;;;2.22;1.38;;;;;;;2.82;88.61;93845.50;5015450;28;20297;-74
2021/12/12 06:45:41;;;;;;;3.13;1.17;;;;;;;2.68;88.89;93858.09;5010472;28;20204;-76
2021/12/12 06:48:11;;;;;;;3.22;1.65;;;;;;;2.75;89.33;93872.63;5013528;28;20567;-76
2021/12/12 06:50:40;;;;;;;1.45;1.20;;;;;;;2.90;88.36;93873.44;5010360;28;20232;-74
2021/12/12 06:53:08;;;;;;;1.77;1.00;;;;;;;2.77;87.67;93873.13;5013671;28;20193;-74
2021/12/12 06:55:39;;;;;;;3.28;1.00;;;;;;;2.87;87.70;93866.03;5023409;28;20250;-73
2021/12/12 06:58:07;;;;;;;0.43;0.43;;;;;;;2.69;87.33;93887.19;5031178;28;20300;-75
2021/12/12 07:00:36;;;;;;;0.50;0.50;;;;;;;2.69;87.73;93873.03;5019787;28;20225;-74
2021/12/12 07:03:03;;;;;;;1.20;0.90;;;;;;;2.45;88.37;93881.25;5011106;28;20252;-74
2021/12/12 07:05:31;;;;;;;2.13;1.10;;;;;;;2.40;88.69;93897.34;5012073;28;20259;-74
2021/12/12 07:08:00;;;;;;;2.63;1.35;;;;;;;2.63;88.15;93912.44;5011954;28;20251;-73
2021/12/12 07:10:30;;;;;;;1.90;1.17;;;;;;;2.74;87.96;93924.53;5010361;28;20204;-74
2021/12/12 07:12:57;;;;;;;1.35;1.13;;;;;;;3.00;88.24;93926.75;5018700;28;20245;-74
2021/12/12 07:15:27;;;;;;;0.47;0.47;;;;;;;2.71;86.70;93919.78;5013867;28;20209;-73
2021/12/12 07:17:57;;;;;;;1.48;1.13;;;;;;;2.70;87.85;93920.88;5021183;28;20236;-74
2021/12/12 07:20:25;;;;;;;1.00;0.82;;;;;;;2.81;87.44;93919.59;5011567;28;20225;-74
2021/12/12 07:22:53;;;;;;;1.35;0.88;;;;;;;2.77;87.32;93929.28;5010312;28;20559;-75
2021/12/12 07:25:22;;;;;;;1.42;1.17;;;;;;;2.88;88.09;93939.78;5004884;28;20208;-72
2021/12/12 07:27:51;;;;;;;1.45;0.90;;;;;;;2.84;87.80;93948.44;5008997;28;20251;-74
2021/12/12 07:30:19;;;;;;;0.80;0.60;;;;;;;2.54;88.09;93940.94;5014646;28;20193;-74
2021/12/12 07:32:46;;;;;;;0.52;0.52;;;;;;;2.47;88.82;93949.31;5010357;28;20668;-73
2021/12/12 07:35:15;;;;;;;0.82;0.75;;;;;;;2.55;89.21;93958.56;5011175;28;20220;-75
2021/12/12 07:37:44;;;;;;;2.65;0.90;;;;;;;2.45;89.40;93950.72;5011022;28;20197;-76
2021/12/12 07:40:12;;;;;;;1.45;0.88;;;;;;;2.55;88.38;93971.13;5009352;28;20244;-73
2021/12/12 07:42:40;;;;;;;1.08;0.93;;;;;;;2.36;88.34;93987.22;5009618;28;20201;-74
2021/12/12 07:45:08;;;;;;;1.20;1.10;;;;;;;2.32;89.04;94007.59;5011132;28;20324;-74
2021/12/12 07:47:36;;;;;;;1.45;0.82;;;;;;;2.39;88.72;94018.69;5009749;28;20201;-73
2021/12/12 07:50:07;;;;;;;1.38;0.90;;;;;;;2.03;88.78;94011.22;5022072;28;20224;-75
2021/12/12 07:52:36;;;;;;;1.67;1.15;;;;;;;1.97;89.44;94023.06;5015273;28;20203;-74
2021/12/12 07:55:06;;;;;;;1.50;0.70;;;;;;;2.09;89.90;94012.72;5010362;28;20648;-74
2021/12/12 07:57:33;;;;;;;1.33;0.70;;;;;;;2.20;89.73;94023.25;5011754;28;20189;-74
2021/12/12 08:00:01;;;;;;;1.67;0.95;;;;;;;2.23;89.13;94030.69;5009171;28;20297;-73
2021/12/12 08:02:29;;;;;;;0.70;0.70;;;;;;;2.60;88.43;94029.88;5024921;28;20219;-75
2021/12/12 08:04:57;;;;;;;0.75;0.75;;;;;;;2.66;87.62;94029.47;5011751;28;20193;-74
2021/12/12 08:07:25;;;;;;;2.05;1.35;;;;;;;3.52;91.64;94038.63;5012438;28;20247;-74
2021/12/12 08:09:54;;;;;;;1.50;1.15;;;;;;;3.69;86.83;94018.50;5012369;28;20205;-75
2021/12/12 08:12:26;;;;;;;1.98;1.15;;;;;;;3.32;85.53;94030.97;5012204;28;20205;-76
2021/12/12 08:14:53;;;;;;;2.97;1.35;;;;;;;3.22;84.95;94036.53;5012663;28;20193;-74
2021/12/12 08:17:22;;;;;;;2.33;1.02;;;;;;;2.99;84.78;94042.84;5012320;28;20201;-74
2021/12/12 08:19:50;;;;;;;1.98;1.30;;;;;;;2.88;85.11;94014.66;5012502;28;20205;-75
2021/12/12 08:22:18;;;;;;;1.80;0.98;;;;;;;2.66;84.77;94044.72;5012646;28;20554;-76
2021/12/12 08:24:46;;;;;;;1.23;0.95;;;;;;;2.74;85.75;94052.88;5012482;28;20201;-77
2021/12/12 08:27:14;;;;;;;1.60;1.00;;;;;;;2.79;85.70;94052.00;5012575;28;20201;-76
2021/12/12 08:29:42;;;;;;;1.10;0.93;;;;;;;2.78;85.48;94059.22;5012091;28;20721;-76
2021/12/12 08:32:14;;;;;;;1.73;0.90;;;;;;;2.66;85.96;94052.75;5011956;28;20287;-75
2021/12/12 08:34:41;;;;;;;2.33;0.70;;;;;;;2.51;86.59;94059.13;5012848;28;20201;-76
2021/12/12 08:37:09;;;;;;;1.08;0.80;;;;;;;2.50;86.84;94062.88;5012043;28;20893;-75
2021/12/12 08:39:37;;;;;;;0.40;0.40;;;;;;;2.62;87.08;94062.44;5011996;28;20229;-75
2021/12/12 08:42:06;;;;;;;1.80;1.20;;;;;;;2.84;88.55;94068.78;5011961;28;20294;-75
2021/12/12 08:44:36;;;;;;;2.38;1.02;;;;;;;3.26;86.93;94068.84;5012251;28;20201;-74
2021/12/12 08:47:07;;;;;;;2.10;1.35;;;;;;;3.20;86.02;94082.31;5019132;28;20200;-74
2021/12/12 08:49:36;;;;;;;1.50;0.98;;;;;;;2.95;86.37;94079.28;5011793;28;20201;-76
2021/12/12 08:52:07;;;;;;;3.92;1.40;;;;;;;2.76;86.28;94085.47;5019702;28;20201;-76
2021/12/12 08:54:36;;;;;;;2.20;1.13;;;;;;;2.84;86.96;94094.72;5028967;28;20189;-77
2021/12/12 08:57:09;;;;;;;1.05;0.80;;;;;;;2.75;86.65;94110.63;5032029;28;20204;-77
2021/12/12 08:59:43;;;;;;;2.03;1.30;;;;;;;2.75;85.86;94113.28;5033041;28;20193;-75
2021/12/12 09:02:13;;;;;;;1.98;1.00;;;;;;;2.49;84.70;94114.75;5032576;28;20223;-74
2021/12/12 09:04:46;;;;;;;0.70;0.63;;;;;;;2.48;84.68;94121.19;5032844;28;20201;-75
2021/12/12 09:07:17;;;;;;;2.55;1.00;;;;;;;2.53;85.83;94131.81;5032201;28;20196;-74
2021/12/12 09:09:50;;;;;;;1.02;0.93;;;;;;;2.38;85.96;94114.09;5032035;28;20203;-74
2021/12/12 09:12:20;;;;;;;1.65;1.00;;;;;;;2.27;85.87;94138.59;5032163;28;20200;-75
2021/12/12 09:14:52;;;;;;;1.40;0.93;;;;;;;2.18;85.72;94113.59;5031973;28;20890;-74
2021/12/12 09:17:25;;;;;;;2.17;1.25;;;;;;;2.11;85.98;94130.78;5032239;28;20277;-74
2021/12/12 09:19:56;;;;;;;1.10;0.73;;;;;;;2.26;85.80;94126.31;5031780;28;20201;-76
2021/12/12 09:22:29;;;;;;;3.20;1.13;;;;;;;2.17;87.30;94138.72;5031381;28;20633;-75
2021/12/12 09:25:02;;;;;;;1.25;0.90;;;;;;;2.04;87.82;94145.56;5031821;28;20262;-73
2021/12/12 09:27:35;;;;;;;1.98;1.33;;;;;;;1.99;88.33;94142.94;5031531;28;20239;-74
2021/12/12 09:30:08;;;;;;;0.77;0.70;;;;;;;2.21;87.33;94134.38;5028660;28;20217;-75
2021/12/12 09:32:39;;;;;;;2.28;1.45;;;;;;;2.35;87.49;94145.94;5031763;28;20195;-75
2021/12/12 09:35:10;;;;;;;1.98;1.25;;;;;;;2.41;87.46;94150.16;5017860;28;20226;-74
2021/12/12 09:37:43;;;;;;;1.05;0.95;;;;;;;2.24;86.60;94155.19;5031183;28;20196;-75
2021/12/12 09:40:18;;;;;;;1.73;1.25;;;;;;;2.13;86.77;94155.31;5020633;28;20322;-75
2021/12/12 09:43:04;;;;;;;1.95;1.15;;;;;;;1.96;87.51;94156.88;5025710;28;20208;-75
2021/12/12 09:45:49;;;;;;;1.10;0.80;;;;;;;2.12;86.80;94159.06;5031421;28;20331;-74
2021/12/12 09:51:50;;;;;;;2.15;1.38;;;;;;;1.75;87.70;94169.66;5031272;28;20215;-75
2021/12/12 09:54:26;;;;;;;1.38;0.90;;;;;;;1.77;87.32;94162.97;5031673;28;20200;-74
2021/12/12 09:56:57;;;;;;;1.10;0.88;;;;;;;1.95;86.69;94169.41;5031503;28;20254;-75
2021/12/12 09:59:39;;;;;;;2.55;1.20;;;;;;;1.80;86.81;94182.94;5031435;28;20636;-75
2021/12/12 10:02:20;;;;;;;1.45;1.25;;;;;;;2.11;86.46;94184.19;5031805;28;20217;-75
2021/12/12 10:05:03;;;;;;;1.60;1.30;;;;;;;1.99;85.56;94186.47;5000162;28;20197;-75
2021/12/12 10:07:41;;;;;;;1.33;0.90;;;;;;;2.06;85.87;94173.56;5028677;28;20200;-76
2021/12/12 10:10:13;;;;;;;2.08;1.63;;;;;;;2.14;86.14;94164.94;5031141;28;20242;-75
2021/12/12 10:12:45;;;;;;;2.10;0.95;;;;;;;2.05;84.48;94169.28;5005368;28;20270;-73
2021/12/12 10:15:18;;;;;;;1.65;1.10;;;;;;;1.95;84.59;94182.78;5018120;28;20292;-74
2021/12/12 10:17:53;;;;;;;0.68;0.68;;;;;;;2.22;84.35;94173.38;5031111;28;20266;-74
2021/12/12 10:20:25;;;;;;;1.00;0.98;;;;;;;2.21;83.67;94185.16;5031078;28;20196;-77
2021/12/12 10:23:05;;;;;;;2.40;1.40;;;;;;;2.23;84.89;94177.63;5030370;28;20196;-75
2021/12/12 10:25:36;;;;;;;2.03;1.40;;;;;;;1.99;85.12;94183.81;5030911;28;20254;-75
2021/12/12 10:28:15;;;;;;;1.35;1.08;;;;;;;1.63;84.41;94158.59;5031148;28;20197;-77
2021/12/12 10:30:49;;;;;;;1.08;1.00;;;;;;;1.79;85.74;94192.81;5008017;28;20558;-75
2021/12/12 10:33:23;;;;;;;1.52;1.15;;;;;;;1.89;86.30;94181.25;5014317;28;20209;-74
2021/12/12 10:35:54;;;;;;;2.40;1.38;;;;;;;1.76;85.78;94200.63;5021053;28;20193;-77
2021/12/12 10:38:26;;;;;;;1.95;1.08;;;;;;;1.78;86.29;94204.59;5030435;28;20266;-74
2021/12/12 10:40:56;;;;;;;2.13;1.88;;;;;;;2.00;87.04;94213.97;5013851;28;20248;-75
2021/12/12 10:43:28;;;;;;;1.90;1.63;;;;;;;1.76;87.37;94212.09;5016299;28;20232;-74
2021/12/12 10:46:00;;;;;;;1.88;1.20;;;;;;;2.00;86.29;94222.78;5030520;28;20192;-73
2021/12/12 10:48:36;;;;;;;1.48;0.80;;;;;;;2.14;85.62;94220.25;5030109;28;20266;-75
2021/12/12 10:51:10;;;;;;;2.17;1.15;;;;;;;2.45;86.02;94215.31;5030381;28;20192;-71
2021/12/12 10:53:41;;;;;;;1.35;0.82;;;;;;;2.18;84.97;94199.09;5023459;28;20186;-71
2021/12/12 10:56:20;;;;;;;1.65;1.30;;;;;;;2.05;86.88;94217.38;5012049;28;20557;-72
2021/12/12 10:58:50;;;;;;;4.05;1.38;;;;;;;1.98;86.73;94206.25;5007520;28;20228;-72
2021/12/12 11:01:21;;;;;;;1.92;1.23;;;;;;;2.24;88.47;94220.09;5008846;28;20286;-71
2021/12/12 11:03:54;;;;;;;2.00;1.58;;;;;;;1.97;87.71;94204.66;5008784;28;20220;-72
2021/12/12 11:06:26;;;;;;;1.58;1.20;;;;;;;2.14;87.60;94210.34;5018280;28;20254;-73
2021/12/12 11:08:59;;;;;;;2.83;1.85;;;;;;;2.27;87.09;94208.06;5029340;28;20287;-72
2021/12/12 11:11:30;;;;;;;2.45;1.30;;;;;;;2.47;86.04;94218.47;5029253;28;20196;-72
2021/12/12 11:14:07;;;;;;;2.17;1.60;;;;;;;2.72;84.87;94215.50;5029483;28;20687;-72
2021/12/12 11:16:38;;;;;;;3.92;1.63;;;;;;;2.52;86.21;94223.78;5018251;28;20215;-73
2021/12/12 11:19:14;;;;;;;5.85;2.75;;;;;;;2.61;86.98;94219.38;5027293;28;20243;-73
2021/12/12 11:21:46;;;;;;;4.05;2.45;;;;;;;2.34;85.41;94216.50;5029043;28;20740;-73
2021/12/12 11:24:17;;;;;;;11.52;1.80;;;;;;;2.13;87.06;94230.13;5029060;28;20646;-74
2021/12/12 11:26:53;;;;;;;3.95;2.20;;;;;;;2.00;88.48;94219.31;5029146;28;20201;-74
2021/12/12 11:29:25;;;;;;;2.95;1.73;;;;;;;2.14;86.31;94221.03;5019239;28;20208;-73
2021/12/12 11:31:55;;;;;;;4.57;2.25;;;;;;;2.01;88.41;94227.06;5026694;28;20200;-71
2021/12/12 11:34:24;;;;;;;4.88;2.45;;;;;;;1.86;88.28;94229.88;5018433;28;20279;-71
2021/12/12 11:37:05;;;;;;;7.13;1.70;;;;;;;1.64;87.81;94218.91;5028068;28;20215;-73
2021/12/12 11:39:39;;;;;;;5.38;1.88;;;;;;;1.78;88.00;94222.47;5015488;28;20291;-73
2021/12/12 11:42:12;;;;;;;2.28;1.70;;;;;;;1.65;88.61;94225.81;5008060;28;20275;-75
2021/12/12 11:44:47;;;;;;;4.32;2.28;;;;;;;1.70;88.97;94217.75;5016465;28;20224;-72
2021/12/12 11:47:30;;;;;;;3.70;2.50;;;;;;;1.53;88.99;94210.16;5006997;28;20255;-73
2021/12/12 11:50:05;;;;;;;4.85;2.03;;;;;;;1.71;89.36;94219.34;5010563;28;20259;-73
2021/12/12 11:52:39;;;;;;;4.55;2.47;;;;;;;1.83;88.80;94219.75;5013129;28;20254;-73
2021/12/12 11:55:10;;;;;;;3.17;2.10;;;;;;;1.88;88.30;94222.38;4989636;28;20676;-74
2021/12/12 11:57:48;;;;;;;3.30;1.88;;;;;;;1.91;88.45;94226.38;5020123;28;20200;-73
2021/12/12 12:00:19;;;;;;;4.18;1.98;;;;;;;1.85;87.96;94225.63;5018791;28;20239;-72
2021/12/12 12:03:00;;;;;;;3.58;2.28;;;;;;;1.85;87.86;94233.63;5023029;28;20229;-74
2021/12/12 12:05:37;;;;;;;3.05;1.80;;;;;;;1.85;88.79;94225.63;5010115;28;20259;-73
2021/12/12 12:08:14;;;;;;;3.20;2.15;;;;;;;1.80;88.81;94225.66;4990565;28;20248;-74
2021/12/12 12:11:03;;;;;;;5.50;2.90;;;;;;;1.84;88.80;94221.34;5023323;28;20265;-74
2021/12/12 12:13:47;;;;;;;5.13;2.38;;;;;;;1.92;87.56;94233.28;5030077;28;20252;-73
2021/12/12 12:16:28;;;;;;;2.95;2.30;;;;;;;1.76;88.04;94230.78;4998773;28;20208;-73